Time;durP1;ratioP1;P1;durP2;ratioP2;P2;SDS_P1;SDS_P2;PMS_P1;PMS_P2;Temp;Humidity;BMP_temperature;BMP_pressure;BME280_temperature;BME280_humidity;BME280_pressure;Samples;Min_cycle;Max_cycle;Signal;HPM_P1;HPM_P2
2023/12/01 00:00:24;;;;;;;10.25;2.30;;;;;;;24.70;35.10;98147.06;4361990;32;34282;-60
2023/12/01 00:02:52;;;;;;;9.50;2.50;;;;;;;24.69;34.98;98146.25;4361825;32;33929;-60
2023/12/01 00:05:19;;;;;;;5.53;2.00;;;;;;;24.68;35.01;98143.81;4361885;32;33609;-60
2023/12/01 00:07:47;;;;;;;6.70;2.03;;;;;;;24.66;35.00;98157.72;4361748;32;34129;-60
2023/12/01 00:10:15;;;;;;;3.87;2.00;;;;;;;24.66;35.16;98163.16;4361090;32;33858;-60
2023/12/01 00:12:42;;;;;;;7.03;2.12;;;;;;;24.64;35.22;98157.19;4362081;32;33462;-60
2023/12/01 00:15:10;;;;;;;4.28;1.95;;;;;;;24.64;35.26;98153.62;4362153;32;33979;-60
2023/12/01 00:17:37;;;;;;;6.90;2.03;;;;;;;24.64;35.31;98149.00;4361631;32;34707;-60
2023/12/01 00:20:06;;;;;;;6.68;2.10;;;;;;;24.63;35.32;98141.91;4361862;32;33455;-60
2023/12/01 00:22:33;;;;;;;6.70;2.08;;;;;;;24.61;35.34;98157.72;4361824;32;33841;-60
2023/12/01 00:25:01;;;;;;;6.05;2.20;;;;;;;24.62;35.27;98172.16;4361723;32;34985;-60
2023/12/01 00:27:29;;;;;;;6.20;1.90;;;;;;;24.59;35.29;98165.38;4361788;32;34799;-60
2023/12/01 00:29:56;;;;;;;4.40;2.05;;;;;;;24.59;35.27;98173.53;4361733;32;33696;-60
2023/12/01 00:32:24;;;;;;;3.87;1.92;;;;;;;24.58;35.26;98180.09;4361435;32;33764;-59
2023/12/01 00:34:51;;;;;;;5.97;1.80;;;;;;;24.58;35.23;98182.81;4361642;32;34112;-60
2023/12/01 00:37:19;;;;;;;6.87;2.10;;;;;;;24.57;35.28;98181.16;4361671;32;33839;-60
2023/12/01 00:39:47;;;;;;;5.53;2.20;;;;;;;24.56;35.26;98171.34;4361509;32;33581;-60
2023/12/01 00:42:15;;;;;;;6.35;2.35;;;;;;;24.55;35.27;98169.72;4361579;32;34720;-59
2023/12/01 00:44:44;;;;;;;2.60;1.60;;;;;;;24.54;35.31;98179.00;4361504;32;33929;-59
2023/12/01 00:47:13;;;;;;;4.40;1.80;;;;;;;24.54;35.32;98192.63;4361418;32;33914;-59
2023/12/01 00:49:40;;;;;;;5.07;1.95;;;;;;;24.53;35.30;98204.63;4360724;32;32851;-61
2023/12/01 00:52:08;;;;;;;3.65;1.77;;;;;;;24.52;35.26;98202.16;4361504;32;33599;-59
2023/12/01 00:54:36;;;;;;;6.87;2.25;;;;;;;24.51;35.38;98211.44;4361399;32;34116;-60
2023/12/01 00:57:03;;;;;;;5.62;2.08;;;;;;;24.51;35.34;98205.97;4361308;32;34968;-60
2023/12/01 00:59:30;;;;;;;5.93;1.85;;;;;;;24.49;35.37;98203.53;4361144;32;33766;-60
2023/12/01 01:01:59;;;;;;;3.83;1.85;;;;;;;24.48;35.38;98195.63;4361272;32;34636;-60
2023/12/01 01:04:26;;;;;;;6.37;2.08;;;;;;;24.48;35.46;98201.06;4361285;32;33723;-60
2023/12/01 01:06:54;;;;;;;4.62;1.87;;;;;;;24.46;35.46;98192.34;4361152;32;34043;-59
2023/12/01 01:09:22;;;;;;;5.68;2.25;;;;;;;24.44;35.47;98187.19;4361129;32;33536;-59
2023/12/01 01:11:50;;;;;;;5.50;1.83;;;;;;;24.43;35.43;98185.53;4361157;32;34707;-60
2023/12/01 01:14:17;;;;;;;4.05;1.80;;;;;;;24.44;35.31;98192.63;4361204;32;34122;-60
2023/12/01 01:16:45;;;;;;;6.15;2.00;;;;;;;24.42;35.33;98192.88;4361185;32;34585;-59
2023/12/01 01:19:14;;;;;;;5.18;2.08;;;;;;;24.42;35.31;98189.34;4361101;32;33491;-60
2023/12/01 01:21:41;;;;;;;6.53;2.10;;;;;;;24.41;35.41;98176.81;4361188;32;33886;-60
2023/12/01 01:24:09;;;;;;;4.18;1.80;;;;;;;24.40;35.34;98184.19;4363246;32;34862;-60
2023/12/01 01:26:37;;;;;;;5.65;2.00;;;;;;;24.39;35.33;98177.09;4362884;32;33939;-60
2023/12/01 01:29:04;;;;;;;3.97;1.65;;;;;;;24.39;35.40;98187.19;4362938;32;33616;-59
2023/12/01 01:31:32;;;;;;;7.25;1.85;;;;;;;24.40;35.37;98200.53;4363133;32;34067;-60
2023/12/01 01:34:00;;;;;;;6.07;1.90;;;;;;;24.39;35.41;98195.37;4362877;32;33828;-60
2023/12/01 01:36:27;;;;;;;4.43;1.60;;;;;;;24.38;35.31;98188.25;4362827;32;34071;-59
2023/12/01 01:38:55;;;;;;;4.82;1.80;;;;;;;24.38;35.38;98194.50;4362897;32;33534;-60
2023/12/01 01:41:22;;;;;;;4.57;2.00;;;;;;;24.35;35.39;98192.31;4362851;32;33920;-59
2023/12/01 01:43:50;;;;;;;6.60;1.85;;;;;;;24.34;35.58;98189.84;4362692;32;33782;-60
2023/12/01 01:46:18;;;;;;;7.80;1.90;;;;;;;24.34;35.52;98187.13;4362819;32;35044;-60
2023/12/01 01:48:45;;;;;;;4.55;1.90;;;;;;;24.32;35.73;98192.84;4349612;32;33773;-60
2023/12/01 01:51:13;;;;;;;4.50;1.95;;;;;;;24.32;35.68;98202.94;4362661;32;33619;-60
2023/12/01 01:53:44;;;;;;;4.10;1.67;;;;;;;24.31;35.70;98198.59;4349380;32;33990;-60
2023/12/01 01:56:31;;;;;;;4.78;1.90;;;;;;;24.30;35.80;98196.97;4351540;32;33557;-60
2023/12/01 01:58:59;;;;;;;5.37;1.70;;;;;;;24.28;35.85;98190.94;4349546;32;34292;-60
2023/12/01 02:01:27;;;;;;;4.45;1.87;;;;;;;24.28;35.76;98201.84;4362764;32;33675;-60
2023/12/01 02:03:55;;;;;;;4.37;1.85;;;;;;;24.27;35.84;98209.19;4362590;32;34171;-60
2023/12/01 02:06:30;;;;;;;3.80;1.60;;;;;;;24.26;35.86;98199.41;4362743;32;33874;-61
2023/12/01 02:08:59;;;;;;;4.78;1.92;;;;;;;24.25;35.84;98195.03;4362565;32;33497;-60
2023/12/01 02:11:27;;;;;;;3.42;1.48;;;;;;;24.24;35.85;98196.09;4362590;32;34012;-59
2023/12/01 02:13:54;;;;;;;4.43;1.73;;;;;;;24.24;35.92;98201.56;4362599;32;34950;-60
2023/12/01 02:16:22;;;;;;;3.37;1.67;;;;;;;24.23;36.01;98199.12;4349390;32;34661;-61
2023/12/01 02:18:51;;;;;;;3.85;1.70;;;;;;;24.23;35.98;98210.81;4362603;32;33257;-60
2023/12/01 02:21:24;;;;;;;3.62;1.98;;;;;;;24.23;36.08;98207.28;4362733;32;34525;-60
2023/12/01 02:23:52;;;;;;;5.50;2.17;;;;;;;24.22;36.08;98214.66;4362457;32;34681;-59
2023/12/01 02:26:20;;;;;;;3.53;1.75;;;;;;;24.20;36.10;98195.00;4362560;32;34804;-60
2023/12/01 02:28:48;;;;;;;5.72;1.70;;;;;;;24.20;36.12;98189.56;4362803;32;33409;-60
2023/12/01 02:31:16;;;;;;;3.22;1.80;;;;;;;24.19;36.17;98190.66;4362313;32;33959;-59
2023/12/01 02:33:44;;;;;;;5.10;1.80;;;;;;;24.19;36.21;98185.19;4362461;32;34066;-60
2023/12/01 02:36:13;;;;;;;4.03;1.70;;;;;;;24.17;36.27;98190.12;4362462;32;34311;-59
2023/12/01 02:38:41;;;;;;;5.80;1.77;;;;;;;24.15;36.21;98190.41;4362426;32;34524;-60
2023/12/01 02:41:09;;;;;;;4.12;1.80;;;;;;;24.16;36.29;98197.47;4362504;32;34045;-60
2023/12/01 02:43:36;;;;;;;4.28;1.60;;;;;;;24.15;36.24;98193.13;4362423;32;34790;-59
2023/12/01 02:46:04;;;;;;;3.70;1.90;;;;;;;24.15;36.31;98193.13;4362386;32;33498;-60
2023/12/01 02:48:32;;;;;;;4.43;1.90;;;;;;;24.15;36.27;98197.72;4362458;32;33427;-59
2023/12/01 02:50:59;;;;;;;4.07;1.58;;;;;;;24.13;36.28;98203.44;4362696;32;34029;-60
2023/12/01 02:53:27;;;;;;;6.82;1.62;;;;;;;24.14;36.31;98210.53;4362286;32;33804;-60
2023/12/01 02:55:54;;;;;;;3.72;1.40;;;;;;;24.15;36.20;98214.06;4362294;32;34225;-60
2023/12/01 02:58:22;;;;;;;4.25;1.85;;;;;;;24.13;36.25;98197.19;4362494;32;33289;-59
2023/12/01 03:00:50;;;;;;;5.10;1.77;;;;;;;24.12;36.35;98192.84;4362145;32;34113;-60
2023/12/01 03:03:17;;;;;;;4.55;1.70;;;;;;;24.12;36.36;98198.28;4362267;32;34063;-60
2023/12/01 03:05:45;;;;;;;4.70;1.80;;;;;;;24.12;36.29;98211.91;4362392;32;34115;-60
2023/12/01 03:08:13;;;;;;;3.30;1.45;;;;;;;24.11;36.34;98221.19;4361998;32;34273;-60
2023/12/01 03:10:41;;;;;;;5.65;1.48;;;;;;;24.10;36.29;98209.44;4362520;32;33815;-60
2023/12/01 03:13:08;;;;;;;5.43;1.80;;;;;;;24.09;36.23;98205.06;4362201;32;33821;-60
2023/12/01 03:15:36;;;;;;;10.35;1.87;;;;;;;24.10;36.27;98205.91;4362169;32;34991;-59
2023/12/01 03:18:03;;;;;;;5.32;1.67;;;;;;;24.08;36.37;98205.34;4362572;32;33483;-60
2023/12/01 03:20:31;;;;;;;3.08;1.60;;;;;;;24.06;36.46;98216.53;4362422;32;33971;-60
2023/12/01 03:22:59;;;;;;;4.18;1.67;;;;;;;24.05;36.46;98222.22;4362187;32;33793;-59
2023/12/01 03:25:27;;;;;;;7.03;1.80;;;;;;;24.06;36.48;98212.97;4361978;32;34460;-59
2023/12/01 03:27:54;;;;;;;6.10;2.00;;;;;;;24.04;36.39;98198.81;4362240;32;33774;-60
2023/12/01 03:30:22;;;;;;;3.17;1.95;;;;;;;24.02;36.43;98203.72;4362204;32;33753;-60
2023/12/01 03:32:51;;;;;;;4.35;1.50;;;;;;;24.03;36.47;98205.34;4362157;32;34038;-60
2023/12/01 03:35:22;;;;;;;2.78;1.52;;;;;;;24.01;36.45;98208.31;4362268;32;33925;-60
2023/12/01 03:37:58;;;;;;;6.53;1.48;;;;;;;24.01;36.49;98211.03;4362089;32;34263;-59
2023/12/01 03:40:26;;;;;;;2.67;1.30;;;;;;;24.00;36.53;98208.59;4362420;32;33827;-59
2023/12/01 03:42:53;;;;;;;14.38;1.90;;;;;;;24.00;36.45;98216.78;4361942;32;33794;-59
2023/12/01 03:45:21;;;;;;;5.60;1.60;;;;;;;24.00;36.42;98220.31;4361231;32;33539;-60
2023/12/01 03:47:49;;;;;;;3.85;1.87;;;;;;;23.99;36.51;98215.97;4362361;32;33596;-59
2023/12/01 03:50:21;;;;;;;5.23;1.80;;;;;;;23.98;36.50;98218.97;4361702;32;34039;-60
2023/12/01 03:52:49;;;;;;;4.25;1.52;;;;;;;23.99;36.47;98226.03;4362045;32;33900;-60
2023/12/01 03:55:17;;;;;;;3.83;1.60;;;;;;;23.97;36.56;98209.97;4362002;32;34656;-59
2023/12/01 03:57:45;;;;;;;3.47;1.70;;;;;;;23.97;36.52;98209.97;4362357;32;33299;-59
2023/12/01 04:00:16;;;;;;;4.87;1.60;;;;;;;23.97;36.63;98206.41;4361986;32;34712;-60
2023/12/01 04:02:46;;;;;;;4.93;1.62;;;;;;;23.95;36.63;98197.69;4361866;32;33995;-59
2023/12/01 04:05:17;;;;;;;5.82;1.65;;;;;;;23.95;36.59;98194.97;4362006;32;33727;-60
2023/12/01 04:07:51;;;;;;;3.40;1.60;;;;;;;23.93;36.64;98187.06;4361815;32;33371;-59
2023/12/01 04:10:22;;;;;;;2.85;1.65;;;;;;;23.94;36.59;98202.31;4361730;32;34108;-59
2023/12/01 04:12:49;;;;;;;2.12;1.23;;;;;;;23.92;36.60;98194.44;4361861;32;33536;-59
2023/12/01 04:15:18;;;;;;;3.08;1.65;;;;;;;23.92;36.58;98202.59;4361934;32;34168;-59
2023/12/01 04:17:46;;;;;;;3.25;1.50;;;;;;;23.92;36.69;98209.94;4361826;32;33323;-59
2023/12/01 04:20:26;;;;;;;2.62;1.42;;;;;;;23.90;36.75;98210.22;4361940;32;34890;-59
2023/12/01 04:22:58;;;;;;;3.28;1.50;;;;;;;23.90;36.76;98187.59;4361696;32;33789;-60
2023/12/01 04:25:27;;;;;;;4.70;1.55;;;;;;;23.89;36.72;98175.88;4361847;32;33950;-60
2023/12/01 04:27:56;;;;;;;4.93;1.52;;;;;;;23.89;36.78;98185.97;4361871;32;34155;-59
2023/12/01 04:30:24;;;;;;;3.62;1.27;;;;;;;23.88;36.76;98187.06;4361714;32;33596;-60
2023/12/01 04:32:53;;;;;;;3.90;1.60;;;;;;;23.88;36.83;98197.97;4361806;32;34815;-60
2023/12/01 04:35:25;;;;;;;2.78;1.52;;;;;;;23.87;36.90;98199.03;4361526;32;34899;-60
2023/12/01 04:37:53;;;;;;;6.87;1.40;;;;;;;23.87;36.86;98199.03;4361904;32;33653;-59
2023/12/01 04:40:20;;;;;;;4.60;1.42;;;;;;;23.87;36.95;98202.56;4361471;32;34090;-59
2023/12/01 04:42:49;;;;;;;4.32;1.48;;;;;;;23.87;36.94;98193.56;4361674;32;34824;-60
2023/12/01 04:45:20;;;;;;;2.90;1.37;;;;;;;23.86;36.97;98200.13;4361595;32;33994;-60
2023/12/01 04:47:51;;;;;;;3.67;1.70;;;;;;;23.85;36.97;98206.66;4361577;32;33218;-60
2023/12/01 04:50:26;;;;;;;8.00;1.67;;;;;;;23.83;36.97;98204.22;4361374;32;34734;-59
2023/12/01 04:52:55;;;;;;;3.78;1.70;;;;;;;23.83;36.99;98201.47;4361750;32;33669;-59
2023/12/01 04:55:25;;;;;;;3.67;1.40;;;;;;;23.84;36.90;98202.31;4361504;32;34216;-59
2023/12/01 04:57:52;;;;;;;2.78;1.52;;;;;;;23.82;36.95;98197.09;4366589;32;34002;-59
2023/12/01 05:00:21;;;;;;;4.70;1.42;;;;;;;23.84;37.00;98194.13;4366405;32;33772;-60
2023/12/01 05:02:59;;;;;;;4.10;1.92;;;;;;;23.82;37.03;98194.37;4366105;32;34121;-60
2023/12/01 05:05:53;;;;;;;6.28;1.42;;;;;;;23.83;37.00;98190.59;4366456;32;34277;-60
2023/12/01 05:08:21;;;;;;;7.45;1.90;;;;;;;23.80;37.00;98180.22;4363199;32;34275;-59
2023/12/01 05:10:50;;;;;;;4.72;1.85;;;;;;;23.82;36.99;98193.56;4366262;32;34777;-59
2023/12/01 05:13:17;;;;;;;4.85;1.52;;;;;;;23.80;37.17;98185.66;4365973;32;34470;-60
2023/12/01 05:15:46;;;;;;;6.15;1.77;;;;;;;23.80;37.07;98190.31;4366030;32;34082;-59
2023/12/01 05:18:13;;;;;;;4.07;1.58;;;;;;;23.79;37.05;98189.47;4366055;32;33450;-59
2023/12/01 05:20:41;;;;;;;4.65;2.15;;;;;;;23.79;37.05;98192.22;4366062;32;33946;-60
2023/12/01 05:23:09;;;;;;;3.08;1.55;;;;;;;23.78;37.05;98184.28;4366083;32;34022;-60
2023/12/01 05:25:38;;;;;;;8.35;1.70;;;;;;;23.78;37.18;98203.34;4366226;32;34318;-60
2023/12/01 05:28:05;;;;;;;4.72;1.50;;;;;;;23.77;37.17;98207.97;4352576;32;33494;-60
2023/12/01 05:30:35;;;;;;;6.30;1.80;;;;;;;23.77;37.20;98210.69;4365815;32;33956;-60
2023/12/01 05:33:04;;;;;;;7.90;1.40;;;;;;;23.76;37.15;98213.69;4365857;32;33667;-60
2023/12/01 05:35:33;;;;;;;;;;;;;;;23.74;37.12;98196.81;4365889;32;33876;-60
2023/12/01 05:38:00;;;;;;;4.07;1.60;;;;;;;23.84;36.99;98200.38;4365771;32;33583;-60
2023/12/01 05:40:34;;;;;;;3.20;1.50;;;;;;;23.78;36.93;98206.06;4365666;32;33775;-60
2023/12/01 05:43:02;;;;;;;3.78;1.40;;;;;;;23.75;37.07;98193.00;4365631;32;34137;-61
2023/12/01 05:45:33;;;;;;;13.45;2.53;;;;;;;23.73;36.92;98206.88;4365605;32;34047;-63
2023/12/01 05:48:02;;;;;;;5.93;2.62;;;;;;;23.73;36.79;98200.59;4324958;33;32036;-64
2023/12/01 05:50:31;;;;;;;11.07;2.33;;;;;;;23.72;35.77;98204.44;4349491;33;34599;-65
2023/12/01 05:53:03;;;;;;;6.25;2.00;;;;;;;23.70;35.88;98198.44;4353620;32;34831;-65
2023/12/01 05:55:33;;;;;;;6.65;2.30;;;;;;;23.67;35.96;98203.31;4364714;32;34276;-64
2023/12/01 05:58:06;;;;;;;6.78;2.00;;;;;;;23.67;36.03;98210.66;4365364;32;33318;-62
2023/12/01 06:00:34;;;;;;;13.68;2.53;;;;;;;23.65;36.13;98216.38;4365349;32;33923;-64
2023/12/01 06:03:06;;;;;;;6.68;2.25;;;;;;;23.64;36.14;98214.75;4365667;32;34045;-64
2023/12/01 06:05:34;;;;;;;6.97;2.50;;;;;;;23.63;36.07;98215.78;4365158;32;34094;-65
2023/12/01 06:08:02;;;;;;;7.57;1.95;;;;;;;23.62;35.98;98216.87;4349694;32;33567;-64
2023/12/01 06:10:31;;;;;;;7.20;2.10;;;;;;;23.62;35.85;98214.16;4362148;32;33956;-64
2023/12/01 06:13:00;;;;;;;5.95;2.37;;;;;;;23.61;35.94;98222.59;4361068;32;34791;-64
2023/12/01 06:15:31;;;;;;;6.12;2.33;;;;;;;23.60;35.95;98220.97;4360911;32;34629;-64
2023/12/01 06:17:59;;;;;;;5.32;2.17;;;;;;;23.58;35.95;98221.22;4360986;32;33262;-64
2023/12/01 06:20:29;;;;;;;5.75;1.85;;;;;;;23.58;35.90;98223.94;4360986;32;33081;-64
2023/12/01 06:22:57;;;;;;;3.28;2.03;;;;;;;23.56;35.84;98220.69;4361749;32;34009;-64
2023/12/01 06:25:29;;;;;;;5.35;2.12;;;;;;;23.57;35.83;98235.91;4336299;32;33638;-65
2023/12/01 06:28:01;;;;;;;5.40;2.40;;;;;;;23.54;35.74;98225.53;4362566;32;33325;-64
2023/12/01 06:30:33;;;;;;;5.43;2.00;;;;;;;23.54;35.69;98230.19;4362418;32;34684;-65
2023/12/01 06:33:05;;;;;;;5.10;2.45;;;;;;;23.53;35.53;98221.19;4362590;32;34099;-63
2023/12/01 06:35:33;;;;;;;6.47;2.50;;;;;;;23.51;35.50;98231.53;4362555;32;34913;-64
2023/12/01 06:38:00;;;;;;;5.50;2.10;;;;;;;23.50;35.45;98232.63;4346950;32;34303;-66
2023/12/01 06:40:28;;;;;;;6.93;2.53;;;;;;;23.49;35.42;98228.25;4361261;32;34761;-64
2023/12/01 06:42:55;;;;;;;6.03;2.40;;;;;;;23.47;35.39;98227.72;4362380;32;34100;-67
2023/12/01 06:45:26;;;;;;;4.15;2.20;;;;;;;23.47;35.36;98224.16;4358699;32;34939;-67
2023/12/01 06:47:58;;;;;;;7.95;2.78;;;;;;;23.45;35.36;98227.13;4362289;32;34608;-63
2023/12/01 06:50:28;;;;;;;6.07;2.92;;;;;;;23.43;35.15;98212.97;4347797;32;33977;-66
2023/12/01 06:52:59;;;;;;;5.10;2.50;;;;;;;23.42;35.01;98216.78;4360158;32;34208;-66
2023/12/01 06:55:27;;;;;;;4.80;2.67;;;;;;;23.41;34.94;98224.16;4361491;32;33836;-65
2023/12/01 06:57:55;;;;;;;4.87;2.85;;;;;;;23.39;34.88;98223.56;4362404;32;33488;-66
2023/12/01 07:00:36;;;;;;;7.65;3.40;;;;;;;23.37;34.90;98222.22;4361841;32;33640;-66
2023/12/01 07:03:06;;;;;;;5.37;2.97;;;;;;;23.36;34.86;98223.28;4362382;32;33981;-66
2023/12/01 07:05:35;;;;;;;12.25;3.50;;;;;;;23.35;34.78;98221.66;4360686;32;33931;-67
2023/12/01 07:08:06;;;;;;;4.70;2.80;;;;;;;23.34;34.76;98225.44;4360620;32;32996;-65
2023/12/01 07:10:34;;;;;;;6.25;3.45;;;;;;;23.31;34.80;98232.22;4360765;32;33439;-67
2023/12/01 07:13:03;;;;;;;5.25;2.85;;;;;;;23.30;34.72;98240.66;4360400;32;34154;-66
2023/12/01 07:15:31;;;;;;;5.80;3.30;;;;;;;23.28;34.67;98237.41;4360279;32;34686;-64
2023/12/01 07:17:59;;;;;;;5.07;2.78;;;;;;;23.28;34.62;98261.91;4361704;32;34241;-67
2023/12/01 07:20:26;;;;;;;4.25;2.55;;;;;;;23.25;34.57;98246.91;4360127;32;33964;-66
2023/12/01 07:22:54;;;;;;;9.82;3.37;;;;;;;23.24;34.62;98253.44;4360751;32;34037;-67
2023/12/01 07:25:23;;;;;;;7.22;3.00;;;;;;;23.23;34.53;98270.03;4362287;32;33869;-66
2023/12/01 07:28:03;;;;;;;7.18;3.05;;;;;;;23.22;34.52;98235.72;4361607;32;33346;-67
2023/12/01 07:30:31;;;;;;;6.43;2.87;;;;;;;23.21;34.49;98248.50;4347530;32;34868;-65
2023/12/01 07:32:59;;;;;;;7.50;3.08;;;;;;;23.19;34.52;98230.81;4361307;32;33790;-64
2023/12/01 07:35:27;;;;;;;5.60;3.03;;;;;;;23.17;34.42;98228.34;4361886;32;34919;-68
2023/12/01 07:37:55;;;;;;;6.32;2.75;;;;;;;23.16;34.47;98230.25;4362389;32;34526;-66
2023/12/01 07:40:23;;;;;;;7.28;3.65;;;;;;;23.15;34.41;98244.12;4375286;32;33740;-66
2023/12/01 07:42:56;;;;;;;7.60;2.90;;;;;;;23.14;34.37;98242.47;4368962;32;34878;-65
2023/12/01 07:45:25;;;;;;;7.18;3.30;;;;;;;23.13;34.38;98246.28;4363943;32;33849;-65
2023/12/01 07:47:54;;;;;;;7.45;3.65;;;;;;;23.11;34.32;98232.13;4364223;32;33642;-67
2023/12/01 07:50:25;;;;;;;6.80;3.40;;;;;;;23.11;34.30;98237.56;4361185;32;34026;-67
2023/12/01 07:52:54;;;;;;;8.13;3.87;;;;;;;23.08;34.36;98233.47;4340623;32;33812;-64
2023/12/01 07:55:22;;;;;;;6.32;3.30;;;;;;;23.07;34.22;98239.16;4361929;32;33624;-65
2023/12/01 07:57:51;;;;;;;6.07;3.72;;;;;;;23.05;34.25;98255.75;4361413;32;33605;-66
2023/12/01 08:00:19;;;;;;;4.78;3.00;;;;;;;23.04;34.28;98251.41;4348937;32;33987;-66
2023/12/01 08:02:47;;;;;;;6.28;3.50;;;;;;;23.04;34.23;98254.13;4361796;32;33757;-66
2023/12/01 08:05:15;;;;;;;7.43;3.58;;;;;;;23.03;34.21;98240.75;4361160;32;34577;-66
2023/12/01 08:07:51;;;;;;;5.72;3.12;;;;;;;23.02;34.18;98266.31;4361004;32;33364;-65
2023/12/01 08:10:20;;;;;;;5.95;3.17;;;;;;;23.01;34.27;98265.50;4347536;32;33845;-62
2023/12/01 08:12:49;;;;;;;5.93;3.47;;;;;;;23.01;34.28;98287.28;4348525;32;34846;-65
2023/12/01 08:15:17;;;;;;;5.97;3.17;;;;;;;23.01;34.34;98276.41;4327681;33;34813;-66
2023/12/01 08:17:45;;;;;;;5.37;3.30;;;;;;;23.02;34.35;98255.44;4358299;32;33655;-64
2023/12/01 08:20:12;;;;;;;7.40;2.85;;;;;;;23.01;34.42;98279.13;4361406;32;34110;-66
2023/12/01 08:22:43;;;;;;;6.93;2.92;;;;;;;23.02;34.44;98256.25;4360996;32;34919;-65
2023/12/01 08:25:12;;;;;;;6.03;3.28;;;;;;;23.03;34.49;98263.34;4360868;32;34738;-66
2023/12/01 08:27:40;;;;;;;5.95;2.97;;;;;;;23.02;34.49;98267.16;4347286;32;33620;-63
2023/12/01 08:30:08;;;;;;;5.28;2.83;;;;;;;23.02;34.58;98266.31;4349545;32;34804;-62
2023/12/01 08:32:44;;;;;;;5.15;3.37;;;;;;;23.03;34.62;98273.41;4361672;32;34813;-63
2023/12/01 08:35:12;;;;;;;5.47;2.80;;;;;;;23.03;34.64;98268.78;4360948;32;33794;-64
2023/12/01 08:37:39;;;;;;;8.30;2.90;;;;;;;23.04;34.69;98261.47;4356438;32;33583;-65
2023/12/01 08:40:11;;;;;;;5.37;3.05;;;;;;;23.03;34.70;98271.50;4369246;32;33738;-63
2023/12/01 08:42:41;;;;;;;6.18;3.33;;;;;;;23.03;34.72;98287.81;4376387;32;34001;-66
2023/12/01 08:45:10;;;;;;;6.28;3.10;;;;;;;23.03;34.82;98276.94;4362351;32;33716;-63
2023/12/01 08:47:38;;;;;;;7.57;3.12;;;;;;;23.05;34.75;98269.34;4361684;32;33634;-64
2023/12/01 08:50:06;;;;;;;5.05;2.83;;;;;;;23.05;34.75;98276.69;4347595;32;33894;-64
2023/12/01 08:52:38;;;;;;;5.55;3.00;;;;;;;23.06;34.72;98278.34;4361471;32;33920;-65
2023/12/01 08:55:06;;;;;;;4.85;3.00;;;;;;;23.05;34.81;98263.91;4347923;32;33302;-65
2023/12/01 08:57:34;;;;;;;5.45;2.90;;;;;;;23.05;34.79;98277.50;4359825;32;34305;-66
2023/12/01 09:00:02;;;;;;;4.90;2.92;;;;;;;23.06;34.82;98268.25;4360327;32;34760;-65
2023/12/01 09:02:30;;;;;;;4.07;2.62;;;;;;;23.06;34.84;98287.31;4346487;33;33822;-66
2023/12/01 09:04:57;;;;;;;8.30;3.08;;;;;;;23.05;34.86;98288.41;4346486;33;34123;-64
2023/12/01 09:07:25;;;;;;;4.57;2.70;;;;;;;23.06;34.89;98281.06;4359568;32;32687;-62
2023/12/01 09:09:58;;;;;;;5.45;3.00;;;;;;;23.07;34.90;98296.28;4361199;32;34035;-66
2023/12/01 09:12:26;;;;;;;5.50;3.17;;;;;;;23.06;34.89;98290.03;4360978;32;33819;-65
2023/12/01 09:14:54;;;;;;;4.05;2.40;;;;;;;23.07;34.87;98283.50;4361077;32;34253;-64
2023/12/01 09:17:22;;;;;;;4.87;2.70;;;;;;;23.07;34.91;98286.22;4358742;32;34482;-66
2023/12/01 09:19:50;;;;;;;4.93;2.60;;;;;;;23.07;34.93;98278.06;4360376;32;34153;-66
2023/12/01 09:22:18;;;;;;;6.22;2.90;;;;;;;23.06;34.98;98284.59;4358289;32;33867;-63
2023/12/01 09:24:46;;;;;;;4.57;2.58;;;;;;;23.07;35.01;98279.97;4360218;32;34282;-65
2023/12/01 09:27:14;;;;;;;5.80;2.90;;;;;;;23.07;35.06;98285.41;4360215;32;33615;-65
2023/12/01 09:29:41;;;;;;;5.03;2.83;;;;;;;23.06;35.08;98262.00;4360426;32;33934;-66
2023/12/01 09:32:09;;;;;;;4.90;2.80;;;;;;;23.05;35.11;98271.25;4359288;32;34017;-67
2023/12/01 09:34:37;;;;;;;4.15;2.70;;;;;;;23.04;35.11;98267.72;4360904;32;33745;-67
2023/12/01 09:37:05;;;;;;;4.80;2.80;;;;;;;23.05;35.15;98266.62;4360325;32;34371;-66
2023/12/01 09:39:32;;;;;;;4.30;2.40;;;;;;;23.02;35.15;98263.59;4360549;32;33991;-66
2023/12/01 09:42:02;;;;;;;6.22;3.15;;;;;;;23.02;35.16;98264.44;4359010;32;34009;-62
2023/12/01 09:44:30;;;;;;;6.50;2.62;;;;;;;23.01;35.14;98279.13;4347990;32;34051;-66
2023/12/01 09:46:58;;;;;;;4.80;2.90;;;;;;;23.01;35.11;98279.13;4362708;32;34298;-66
2023/12/01 09:49:28;;;;;;;4.15;2.40;;;;;;;23.01;35.11;98261.97;4336681;32;34011;-66
2023/12/01 09:51:55;;;;;;;4.03;2.55;;;;;;;22.98;35.14;98238.81;4348384;32;33727;-65
2023/12/01 09:54:23;;;;;;;5.15;2.95;;;;;;;22.99;35.03;98215.16;4344387;32;33995;-64
2023/12/01 09:56:51;;;;;;;4.32;2.75;;;;;;;22.96;35.04;98216.50;4345434;32;33050;-63
2023/12/01 09:59:18;;;;;;;6.12;2.70;;;;;;;22.96;35.01;98229.31;4362719;32;33842;-65
2023/12/01 10:01:47;;;;;;;5.55;2.92;;;;;;;22.96;35.01;98232.03;4349089;32;33425;-64
2023/12/01 10:04:15;;;;;;;5.70;2.72;;;;;;;22.94;34.97;98240.41;4362759;32;33976;-64
2023/12/01 10:06:43;;;;;;;6.32;2.40;;;;;;;22.93;34.92;98233.34;4362819;32;34583;-64
2023/12/01 10:09:12;;;;;;;6.12;2.83;;;;;;;22.91;34.94;98243.69;4349273;32;34040;-64
2023/12/01 10:11:40;;;;;;;4.85;2.80;;;;;;;22.91;34.96;98239.06;4363003;32;34106;-64
2023/12/01 10:14:08;;;;;;;4.68;2.40;;;;;;;22.91;34.90;98228.19;4362581;32;34079;-64
2023/12/01 10:16:36;;;;;;;5.07;3.08;;;;;;;22.90;34.96;98220.28;4362526;32;34327;-64
2023/12/01 10:19:04;;;;;;;5.00;2.55;;;;;;;22.89;35.03;98194.16;4362640;32;34691;-65
2023/12/01 10:21:51;;;;;;;3.87;2.58;;;;;;;22.89;35.04;98205.84;4362617;32;34756;-64
2023/12/01 10:24:22;;;;;;;5.10;2.40;;;;;;;22.90;35.02;98199.34;4362654;32;33988;-64
2023/12/01 10:26:55;;;;;;;4.80;2.80;;;;;;;22.88;35.02;98206.91;4362557;32;34151;-65
2023/12/01 10:29:32;;;;;;;4.10;2.40;;;;;;;22.87;34.95;98202.53;4362466;32;34128;-64
2023/12/01 10:32:04;;;;;;;4.47;2.78;;;;;;;22.87;34.97;98193.56;4362541;32;34476;-65
2023/12/01 10:34:32;;;;;;;4.47;2.47;;;;;;;22.87;34.92;98188.13;4362497;32;33686;-64
2023/12/01 10:36:59;;;;;;;3.78;2.30;;;;;;;22.86;34.86;98206.34;4362564;32;33595;-64
2023/12/01 10:39:27;;;;;;;4.22;2.50;;;;;;;22.85;34.79;98206.62;4348956;32;33964;-64
2023/12/01 10:41:56;;;;;;;4.18;2.50;;;;;;;22.85;34.73;98191.12;4362450;32;35175;-64
2023/12/01 10:44:30;;;;;;;5.32;2.75;;;;;;;22.85;34.68;98193.03;4349769;32;33839;-64
2023/12/01 10:46:58;;;;;;;4.22;2.85;;;;;;;22.85;34.64;98193.84;4336663;32;34153;-65
2023/12/01 10:49:26;;;;;;;3.90;2.22;;;;;;;22.86;34.67;98189.22;4336903;32;33953;-65
2023/12/01 10:51:55;;;;;;;4.03;2.65;;;;;;;22.85;34.53;98191.12;4362401;32;33710;-63
2023/12/01 10:54:24;;;;;;;5.07;2.87;;;;;;;22.87;34.60;98196.28;4362204;32;34691;-64
2023/12/01 10:57:09;;;;;;;6.82;3.42;;;;;;;22.88;34.46;98192.47;4360295;32;33304;-65
2023/12/01 10:59:37;;;;;;;4.25;2.37;;;;;;;22.95;34.18;98195.03;4346717;32;34664;-65
2023/12/01 11:02:05;;;;;;;4.12;2.60;;;;;;;22.97;33.75;98190.94;4366648;32;33607;-64
2023/12/01 11:04:33;;;;;;;3.83;2.37;;;;;;;22.99;33.38;98177.06;4362209;32;34868;-63
2023/12/01 11:07:05;;;;;;;4.12;2.53;;;;;;;23.03;33.34;98170.84;4357330;32;33623;-64
2023/12/01 11:09:52;;;;;;;4.82;2.25;;;;;;;23.14;33.60;98166.31;4333750;33;33831;-63
2023/12/01 11:12:34;;;;;;;5.85;2.50;;;;;;;23.28;33.66;98156.59;4334382;33;33890;-64
2023/12/01 11:15:22;;;;;;;4.87;2.20;;;;;;;23.36;33.65;98161.53;4348759;32;34090;-64
2023/12/01 11:17:50;;;;;;;3.28;2.20;;;;;;;23.52;33.55;98167.84;4346044;32;33221;-64
2023/12/01 11:20:44;;;;;;;3.65;2.10;;;;;;;23.60;33.42;98185.56;4334424;33;33979;-62
2023/12/01 11:23:12;;;;;;;3.28;2.00;;;;;;;23.73;33.22;98155.13;4355540;32;34142;-62
2023/12/01 11:25:44;;;;;;;3.80;2.20;;;;;;;23.78;33.11;98152.44;4362000;32;33717;-62
2023/12/01 11:28:43;;;;;;;3.75;1.92;;;;;;;23.85;33.02;98165.81;4361274;32;33825;-61
2023/12/01 11:31:19;;;;;;;5.18;2.47;;;;;;;23.93;32.92;98162.56;4361813;32;34169;-60
2023/12/01 11:33:47;;;;;;;4.70;2.72;;;;;;;24.01;32.56;98166.63;4361751;32;34952;-61
2023/12/01 11:36:28;;;;;;;4.55;2.80;;;;;;;23.99;29.36;98161.47;4359903;32;34133;-61
2023/12/01 11:41:41;;;;;;;3.70;2.62;;;;;;;23.73;27.09;98176.09;4361976;32;33443;-62
2023/12/01 11:44:15;;;;;;;5.50;2.62;;;;;;;23.57;26.86;98177.94;4362154;32;33802;-61
2023/12/01 11:46:43;;;;;;;5.57;2.60;;;;;;;23.40;27.51;98167.22;4361763;32;34130;-61